40NE weather

Landgren Ranch Airport
Bartlett, Nebraska, United States

Public forecast

Using degrees Fahrenheit for public forecast. Weather courtesy of forecast.io.

Closest aviation weather report (METAR) to Landgren Ranch Airport

Closest report is Albion Municipal Airport, 25.3 nm (46.9 km) SE. Retrieved 2019/10/15 02:35 UTC (21 minutes ago):

KBVN 150235Z AUTO 15003KT 10SM CLR 14/09 A2977 RMK AO2 T01430086

Closest aviation forecast (TAF) to Landgren Ranch Airport

Closest forecast is Karl Stefan Memorial Airport, 48.2 nm (89.3 km) E. Retrieved 2019-10-15 00:22 UTC (3 hours ago):

TAF KOFK 142320Z 1500/1524 17013G21KT P6SM SCT250 FM150500 31015KT P6SM SCT250 FM151000 32020G28KT P6SM FEW250 FM151700 32024G30KT P6SM OVC050